Time;durP1;ratioP1;P1;durP2;ratioP2;P2;SDS_P1;SDS_P2;PMS_P1;PMS_P2;Temp;Humidity;BMP_temperature;BMP_pressure;BME280_temperature;BME280_humidity;BME280_pressure;Samples;Min_cycle;Max_cycle;Signal;HPM_P1;HPM_P2
2021/01/14 00:00:51;;;;;;;45.10;22.13;;;1.20;99.90;;;;;;5053853;28;20021;-72
2021/01/14 00:03:17;;;;;;;42.95;19.40;;;1.20;99.90;;;;;;5054139;28;20028;-75
2021/01/14 00:05:43;;;;;;;43.72;20.63;;;1.20;99.90;;;;;;5054502;28;20029;-74
2021/01/14 00:08:10;;;;;;;39.33;22.50;;;1.10;99.90;;;;;;5053703;28;20171;-72
2021/01/14 00:10:36;;;;;;;46.25;22.20;;;1.10;99.90;;;;;;5054129;28;20312;-72
2021/01/14 00:13:06;;;;;;;43.47;21.85;;;1.10;99.90;;;;;;5055889;28;20037;-72
2021/01/14 00:15:32;;;;;;;46.90;22.65;;;1.10;99.90;;;;;;5055850;28;20025;-73
2021/01/14 00:17:58;;;;;;;47.67;25.25;;;1.10;99.90;;;;;;5053937;28;20090;-73
2021/01/14 00:20:24;;;;;;;66.38;29.65;;;1.20;99.90;;;;;;5054267;28;20031;-71
2021/01/14 00:22:49;;;;;;;66.80;32.53;;;1.20;99.90;;;;;;5054180;28;20104;-72
2021/01/14 00:25:19;;;;;;;67.22;33.25;;;1.20;99.90;;;;;;5054612;28;20591;-72
2021/01/14 00:27:45;;;;;;;50.53;25.17;;;1.20;99.90;;;;;;5056638;28;20393;-71
2021/01/14 00:30:12;;;;;;;51.67;22.77;;;1.30;99.90;;;;;;5055639;28;20083;-72
2021/01/14 00:32:40;;;;;;;46.40;20.58;;;1.30;99.90;;;;;;5054018;28;20386;-73
2021/01/14 00:35:07;;;;;;;45.13;21.13;;;1.20;99.90;;;;;;5053568;28;20039;-71
2021/01/14 00:37:51;;;;;;;36.88;18.15;;;1.20;99.90;;;;;;5053483;28;20403;-74
2021/01/14 00:40:29;;;;;;;31.23;16.85;;;1.20;99.90;;;;;;5028006;28;20028;-72
2021/01/14 00:43:02;;;;;;;33.60;16.35;;;1.30;99.90;;;;;;5053585;28;20352;-73
2021/01/14 00:45:29;;;;;;;28.88;15.73;;;1.40;99.90;;;;;;5062048;28;20090;-71
2021/01/14 00:47:55;;;;;;;27.50;14.40;;;1.40;99.90;;;;;;5073557;28;20032;-73
2021/01/14 00:50:22;;;;;;;35.38;15.40;;;1.40;99.90;;;;;;5055384;28;20052;-72
2021/01/14 00:52:48;;;;;;;29.10;14.57;;;1.50;99.90;;;;;;5060692;28;20538;-72
2021/01/14 00:55:15;;;;;;;25.13;13.07;;;1.50;99.90;;;;;;5068631;28;20118;-72
2021/01/14 00:57:41;;;;;;;24.20;12.25;;;1.40;99.90;;;;;;5053155;28;20029;-72
2021/01/14 01:00:10;;;;;;;26.52;11.20;;;1.30;99.90;;;;;;5053405;28;20033;-74
2021/01/14 01:02:37;;;;;;;24.15;14.05;;;1.30;99.90;;;;;;5053265;28;20025;-72
2021/01/14 01:05:04;;;;;;;31.00;14.13;;;1.30;99.90;;;;;;5051365;28;20040;-73
2021/01/14 01:07:30;;;;;;;29.77;14.40;;;1.20;99.90;;;;;;5052520;28;20032;-73
2021/01/14 01:09:55;;;;;;;34.75;15.18;;;1.20;99.90;;;;;;5051635;28;20029;-72
2021/01/14 01:12:21;;;;;;;31.70;13.70;;;1.10;99.90;;;;;;5052748;28;20083;-73
2021/01/14 01:14:47;;;;;;;26.17;13.82;;;1.10;99.90;;;;;;5051901;28;20021;-72
2021/01/14 01:17:12;;;;;;;28.30;13.75;;;1.00;99.90;;;;;;5052526;28;20251;-70
2021/01/14 01:19:38;;;;;;;25.63;12.45;;;1.00;99.90;;;;;;5053254;28;20028;-71
2021/01/14 01:22:04;;;;;;;29.42;13.90;;;1.00;99.90;;;;;;5052758;28;20021;-73
2021/01/14 01:24:29;;;;;;;23.48;12.63;;;1.00;99.90;;;;;;5052874;28;20458;-73
2021/01/14 01:26:55;;;;;;;28.13;13.32;;;1.00;99.90;;;;;;5053127;28;20033;-72
2021/01/14 01:29:21;;;;;;;27.90;13.50;;;1.00;99.90;;;;;;5052471;28;20031;-70
2021/01/14 01:31:47;;;;;;;26.77;13.10;;;1.00;99.90;;;;;;5052542;28;20125;-73
2021/01/14 01:34:13;;;;;;;29.73;13.52;;;1.00;99.90;;;;;;5051035;28;20044;-72
2021/01/14 01:36:38;;;;;;;28.50;12.98;;;1.00;99.90;;;;;;5062384;28;20099;-71
2021/01/14 01:39:05;;;;;;;27.45;13.73;;;1.00;99.90;;;;;;5072500;28;20343;-72
2021/01/14 01:41:31;;;;;;;24.60;11.68;;;0.90;99.90;;;;;;5055069;28;20451;-72
2021/01/14 01:43:56;;;;;;;28.95;12.95;;;0.90;99.90;;;;;;5052742;28;20027;-71
2021/01/14 01:46:33;;;;;;;28.63;13.75;;;1.00;99.90;;;;;;5052191;28;20065;-73
2021/01/14 01:48:59;;;;;;;25.65;13.88;;;1.00;99.90;;;;;;5052654;28;20036;-72
2021/01/14 01:51:31;;;;;;;29.83;13.57;;;0.90;99.90;;;;;;5066725;28;20024;-71
2021/01/14 01:53:58;;;;;;;28.60;13.65;;;0.90;99.90;;;;;;5060389;28;20043;-72
2021/01/14 01:56:24;;;;;;;34.55;14.93;;;0.90;99.90;;;;;;5061671;28;20458;-73
2021/01/14 01:58:58;;;;;;;34.67;15.13;;;0.90;99.90;;;;;;5052769;28;20029;-72
2021/01/14 02:01:25;;;;;;;27.45;12.15;;;0.90;99.90;;;;;;5052578;28;20025;-70
2021/01/14 02:03:51;;;;;;;26.38;11.55;;;1.00;99.90;;;;;;5052355;28;20052;-72
2021/01/14 02:06:17;;;;;;;24.05;11.38;;;0.90;99.90;;;;;;5052326;28;20028;-71
2021/01/14 02:08:55;;;;;;;25.15;11.43;;;0.90;99.90;;;;;;5052699;28;20025;-72
2021/01/14 02:11:38;;;;;;;23.27;11.57;;;0.90;99.90;;;;;;5061645;28;20032;-72
2021/01/14 02:14:18;;;;;;;22.20;10.68;;;0.90;99.90;;;;;;5052388;28;20032;-71
2021/01/14 02:16:45;;;;;;;22.13;9.88;;;0.90;99.90;;;;;;5052665;28;20028;-72
2021/01/14 02:19:20;;;;;;;17.95;9.73;;;0.90;99.90;;;;;;5054550;28;20025;-71
2021/01/14 02:21:47;;;;;;;19.80;10.57;;;0.90;99.90;;;;;;5056183;28;20020;-72
2021/01/14 02:24:39;;;;;;;28.17;11.68;;;0.90;99.90;;;;;;5056448;28;20090;-74
2021/01/14 02:27:08;;;;;;;18.42;9.80;;;0.90;99.90;;;;;;5055937;28;20466;-72
2021/01/14 02:29:35;;;;;;;23.33;10.48;;;0.90;99.90;;;;;;5056313;28;20037;-72
2021/01/14 02:32:01;;;;;;;18.70;9.02;;;0.90;99.90;;;;;;5055976;28;20073;-72
2021/01/14 02:34:27;;;;;;;16.17;8.82;;;0.90;99.90;;;;;;5058742;28;20367;-72
2021/01/14 02:36:53;;;;;;;16.65;8.38;;;0.90;99.90;;;;;;5057835;28;20111;-72
2021/01/14 02:39:18;;;;;;;10.70;5.88;;;0.90;99.90;;;;;;5069835;28;20118;-74
2021/01/14 02:41:44;;;;;;;16.25;7.10;;;1.00;99.90;;;;;;5056684;28;20025;-72
2021/01/14 02:44:10;;;;;;;13.40;5.50;;;1.00;99.90;;;;;;5057159;28;20028;-74
2021/01/14 02:46:36;;;;;;;7.85;5.30;;;1.10;99.90;;;;;;5056656;28;20032;-72
2021/01/14 02:49:09;;;;;;;10.35;5.07;;;1.20;99.90;;;;;;5055843;28;20025;-72
2021/01/14 02:51:44;;;;;;;9.23;5.10;;;1.30;99.90;;;;;;5055610;28;20025;-73
2021/01/14 02:54:12;;;;;;;8.55;4.40;;;1.30;99.90;;;;;;5056246;28;20063;-74
2021/01/14 02:56:40;;;;;;;11.02;5.20;;;1.40;99.90;;;;;;5055400;28;20466;-72
2021/01/14 02:59:06;;;;;;;11.60;6.07;;;1.40;99.90;;;;;;5055931;28;20033;-73
2021/01/14 03:01:33;;;;;;;10.45;4.85;;;1.40;99.90;;;;;;5055653;28;20060;-72
2021/01/14 03:03:58;;;;;;;11.07;5.97;;;1.30;99.90;;;;;;5055269;28;20049;-73
2021/01/14 03:06:24;;;;;;;15.13;6.40;;;1.30;99.90;;;;;;5054987;28;20053;-73
2021/01/14 03:08:50;;;;;;;15.05;7.70;;;1.10;99.90;;;;;;5067339;28;20107;-73
2021/01/14 03:11:16;;;;;;;15.55;7.57;;;1.00;99.90;;;;;;5069491;28;20035;-73
2021/01/14 03:13:43;;;;;;;18.55;7.45;;;0.90;99.90;;;;;;5070059;28;20020;-73
2021/01/14 03:16:09;;;;;;;19.50;7.38;;;0.70;99.90;;;;;;5067255;28;20021;-73
2021/01/14 03:18:34;;;;;;;20.65;9.07;;;0.70;99.90;;;;;;5054402;28;20484;-72
2021/01/14 03:21:00;;;;;;;29.85;10.57;;;0.60;99.90;;;;;;5055131;28;20024;-75
2021/01/14 03:23:26;;;;;;;28.17;11.30;;;0.50;99.90;;;;;;5054995;28;20025;-71
2021/01/14 03:25:52;;;;;;;29.48;14.23;;;0.40;99.90;;;;;;5054907;28;20029;-73
2021/01/14 03:28:17;;;;;;;23.08;11.98;;;0.30;99.90;;;;;;5055196;28;20096;-73
2021/01/14 03:30:43;;;;;;;21.60;11.07;;;0.20;99.90;;;;;;5045669;28;20172;-73
2021/01/14 03:33:09;;;;;;;24.98;12.60;;;0.20;99.90;;;;;;5055097;28;20390;-72
2021/01/14 03:35:35;;;;;;;21.90;11.07;;;0.20;99.90;;;;;;5054793;28;20428;-73
2021/01/14 03:38:00;;;;;;;24.10;12.77;;;0.10;99.90;;;;;;5057542;28;20037;-72
2021/01/14 03:40:26;;;;;;;23.48;12.43;;;0.00;99.90;;;;;;5075000;28;20059;-71
2021/01/14 03:42:52;;;;;;;22.52;12.63;;;0.00;99.90;;;;;;5060362;28;20036;-72
2021/01/14 03:45:17;;;;;;;29.83;13.10;;;-0.20;99.90;;;;;;5054986;28;20473;-73
2021/01/14 03:47:43;;;;;;;31.92;15.05;;;-0.30;99.90;;;;;;5054844;28;20025;-73
2021/01/14 03:50:09;;;;;;;22.10;12.80;;;-0.40;99.90;;;;;;5055055;28;20027;-74
2021/01/14 03:52:35;;;;;;;34.42;15.45;;;-0.40;99.90;;;;;;5055000;28;20405;-70
2021/01/14 03:55:01;;;;;;;30.58;12.70;;;-0.50;99.90;;;;;;5054083;28;20032;-72
2021/01/14 03:57:27;;;;;;;36.25;14.68;;;-0.60;99.90;;;;;;5054434;28;20365;-74
2021/01/14 03:59:53;;;;;;;36.35;15.45;;;-0.50;99.90;;;;;;5054616;28;20021;-73
2021/01/14 04:02:18;;;;;;;23.73;11.10;;;-0.50;99.90;;;;;;5054540;28;20029;-72
2021/01/14 04:04:44;;;;;;;25.42;10.85;;;-0.60;99.90;;;;;;5054399;28;20416;-72
2021/01/14 04:07:14;;;;;;;28.40;14.27;;;-0.50;99.90;;;;;;5054363;28;20103;-73
2021/01/14 04:09:41;;;;;;;22.02;10.73;;;-0.50;99.90;;;;;;5055022;28;20021;-75
2021/01/14 04:12:08;;;;;;;22.15;11.77;;;-0.40;99.90;;;;;;5054035;28;20025;-73
2021/01/14 04:14:34;;;;;;;29.02;12.70;;;-0.40;99.90;;;;;;5054536;28;20409;-71
2021/01/14 04:16:59;;;;;;;22.88;11.18;;;-0.40;99.90;;;;;;5053338;28;20024;-72
2021/01/14 04:19:25;;;;;;;25.85;11.73;;;-0.40;99.90;;;;;;5053232;28;20041;-71
2021/01/14 04:21:52;;;;;;;33.35;15.73;;;-0.40;99.90;;;;;;5054271;28;20067;-70
2021/01/14 04:24:18;;;;;;;23.05;11.88;;;-0.30;99.90;;;;;;5054468;28;20119;-72
2021/01/14 04:26:43;;;;;;;21.23;11.40;;;-0.30;99.90;;;;;;5053833;28;20100;-72
2021/01/14 04:29:09;;;;;;;18.70;11.00;;;-0.40;99.90;;;;;;5054022;28;20374;-72
2021/01/14 04:31:36;;;;;;;23.60;10.65;;;-0.40;99.90;;;;;;5050675;28;20455;-70
2021/01/14 04:34:03;;;;;;;19.35;10.50;;;-0.30;99.90;;;;;;5053449;28;20017;-71
2021/01/14 04:36:29;;;;;;;24.25;12.02;;;-0.40;99.90;;;;;;5053690;28;20385;-73
2021/01/14 04:38:55;;;;;;;26.10;13.63;;;-0.50;99.90;;;;;;5063933;28;20035;-72
2021/01/14 04:41:21;;;;;;;29.27;14.63;;;-0.60;99.90;;;;;;5056756;28;20021;-73
2021/01/14 04:43:49;;;;;;;23.05;13.23;;;-0.60;99.90;;;;;;5056805;28;20448;-73
2021/01/14 04:46:15;;;;;;;27.25;12.95;;;-0.60;99.90;;;;;;5058806;28;20013;-73
2021/01/14 04:48:42;;;;;;;22.42;11.90;;;-0.70;99.90;;;;;;5055697;28;20025;-72
2021/01/14 04:51:11;;;;;;;24.85;11.98;;;-0.70;99.90;;;;;;5053629;28;20450;-73
2021/01/14 04:53:39;;;;;;;31.58;13.60;;;-0.70;99.90;;;;;;5053928;28;20031;-72
2021/01/14 04:56:08;;;;;;;31.73;14.98;;;-0.70;99.90;;;;;;5054782;28;20036;-72
2021/01/14 04:58:38;;;;;;;26.35;13.85;;;-0.80;99.90;;;;;;5053404;28;20033;-71
2021/01/14 05:01:24;;;;;;;20.60;11.50;;;-0.90;99.90;;;;;;5052962;28;20032;-71
2021/01/14 05:03:51;;;;;;;29.88;14.15;;;-1.00;99.90;;;;;;5052175;28;20024;-71
2021/01/14 05:06:18;;;;;;;32.15;14.93;;;-1.00;99.90;;;;;;5053097;28;20032;-70
2021/01/14 05:08:48;;;;;;;30.35;13.80;;;-1.10;99.90;;;;;;5052891;28;20059;-71
2021/01/14 05:11:15;;;;;;;27.90;13.50;;;-1.00;99.90;;;;;;5051871;28;20025;-73
2021/01/14 05:13:44;;;;;;;19.60;10.02;;;-1.00;99.90;;;;;;5060846;28;20110;-73
2021/01/14 05:16:11;;;;;;;20.45;11.50;;;-1.00;99.90;;;;;;5052753;28;20413;-73
2021/01/14 05:18:37;;;;;;;20.55;11.90;;;-1.00;99.90;;;;;;5038976;28;20040;-72
2021/01/14 05:21:03;;;;;;;23.73;10.00;;;-0.90;99.90;;;;;;5052986;28;20498;-72
2021/01/14 05:23:31;;;;;;;17.23;10.30;;;-0.90;99.90;;;;;;5052860;28;20104;-74
2021/01/14 05:25:57;;;;;;;16.17;7.20;;;-1.00;99.90;;;;;;5052656;28;20075;-72
2021/01/14 05:28:25;;;;;;;15.60;7.32;;;-0.90;99.90;;;;;;5053178;28;20036;-72
2021/01/14 05:30:54;;;;;;;13.25;6.53;;;-1.00;99.90;;;;;;5052735;28;20037;-70
2021/01/14 05:33:22;;;;;;;18.15;8.55;;;-1.00;99.90;;;;;;5035024;28;20036;-73
2021/01/14 05:35:50;;;;;;;14.93;8.30;;;-1.00;99.90;;;;;;5052538;28;20021;-73
2021/01/14 05:38:22;;;;;;;18.50;8.77;;;-1.20;99.90;;;;;;5053820;28;20058;-72
2021/01/14 05:43:57;;;;;;;17.13;8.50;;;-1.10;99.90;;;;;;5045100;28;20167;-74
2021/01/14 05:46:24;;;;;;;14.65;8.02;;;-0.80;99.90;;;;;;5059835;28;20493;-71
2021/01/14 05:48:52;;;;;;;20.83;9.93;;;-0.90;99.90;;;;;;5068685;28;20031;-73
2021/01/14 05:51:24;;;;;;;17.90;9.43;;;-1.10;99.90;;;;;;5070019;28;20021;-73
2021/01/14 05:53:54;;;;;;;24.47;10.00;;;-1.20;99.90;;;;;;5055521;28;20403;-73
2021/01/14 05:56:35;;;;;;;18.65;8.77;;;-1.30;99.90;;;;;;5057631;28;20041;-71
2021/01/14 05:59:04;;;;;;;16.58;9.23;;;-1.40;99.90;;;;;;5056887;28;20025;-72
2021/01/14 06:01:30;;;;;;;18.70;9.80;;;-1.40;99.90;;;;;;5057573;28;20429;-71
2021/01/14 06:04:13;;;;;;;15.60;7.55;;;-1.30;99.90;;;;;;5058223;28;20064;-72
2021/01/14 06:06:42;;;;;;;12.52;7.45;;;-1.30;99.90;;;;;;5070969;28;20051;-72
2021/01/14 06:09:10;;;;;;;15.10;6.85;;;-1.30;99.90;;;;;;5056974;28;20462;-71
2021/01/14 06:11:36;;;;;;;11.80;7.22;;;-1.20;99.90;;;;;;5058977;28;20359;-72
2021/01/14 06:14:02;;;;;;;16.65;8.45;;;-1.20;99.90;;;;;;5059170;28;20028;-73
2021/01/14 06:16:28;;;;;;;14.20;7.07;;;-1.20;99.90;;;;;;5068098;28;20366;-72
2021/01/14 06:19:09;;;;;;;11.95;7.30;;;-1.10;99.90;;;;;;5062605;28;20040;-71
2021/01/14 06:21:46;;;;;;;16.83;7.25;;;-1.10;99.90;;;;;;5073704;28;20519;-72
2021/01/14 06:24:36;;;;;;;12.30;6.32;;;-1.00;99.90;;;;;;5074869;28;20328;-73
2021/01/14 06:27:04;;;;;;;11.27;6.30;;;-1.00;99.90;;;;;;5074780;28;20020;-72
2021/01/14 06:29:41;;;;;;;12.55;6.22;;;-0.90;99.90;;;;;;5074505;28;20051;-72
2021/01/14 06:32:18;;;;;;;12.05;6.47;;;-0.90;99.90;;;;;;5075238;28;20095;-73
2021/01/14 06:34:47;;;;;;;18.40;9.82;;;-0.90;99.90;;;;;;5071675;28;20543;-71
2021/01/14 06:37:14;;;;;;;18.98;10.00;;;-0.90;99.90;;;;;;5076276;28;20506;-72
2021/01/14 06:40:04;;;;;;;17.00;9.57;;;-0.90;99.90;;;;;;5073917;28;20025;-71
2021/01/14 06:42:35;;;;;;;18.27;9.48;;;-0.90;99.90;;;;;;5013833;28;20112;-74
2021/01/14 06:45:06;;;;;;;18.92;10.20;;;-0.80;99.90;;;;;;5013215;28;20092;-73
2021/01/14 06:47:42;;;;;;;16.90;9.27;;;-0.90;99.90;;;;;;5012040;28;20117;-73
2021/01/14 06:52:53;;;;;;;24.52;11.32;;;-1.00;99.90;;;;;;5013211;28;20030;-71
2021/01/14 06:55:23;;;;;;;23.33;10.85;;;-1.00;99.90;;;;;;5010953;28;20022;-71
2021/01/14 06:58:10;;;;;;;21.45;11.18;;;-1.00;99.90;;;;;;5002236;28;20042;-73
2021/01/14 07:00:40;;;;;;;22.33;11.57;;;-1.00;99.90;;;;;;5013267;28;20038;-71
2021/01/14 07:03:24;;;;;;;25.35;12.77;;;-1.00;99.90;;;;;;5014692;28;20150;-71
2021/01/14 07:05:53;;;;;;;28.85;12.70;;;-0.90;99.90;;;;;;5008210;28;20064;-71
2021/01/14 07:08:30;;;;;;;30.55;12.77;;;-0.90;99.90;;;;;;4992976;28;20547;-71
2021/01/14 07:11:00;;;;;;;44.67;27.38;;;-0.90;99.90;;;;;;4989351;28;20121;-71
2021/01/14 07:13:32;;;;;;;30.00;13.13;;;-0.90;99.90;;;;;;4996378;28;20122;-72
2021/01/14 07:15:59;;;;;;;25.92;12.98;;;-0.90;99.90;;;;;;5010007;28;20030;-69
2021/01/14 07:18:30;;;;;;;49.72;22.88;;;-0.90;99.90;;;;;;5004265;28;20035;-72
2021/01/14 07:21:12;;;;;;;51.00;26.75;;;-0.90;99.90;;;;;;5041727;28;20195;-70
2021/01/14 07:23:46;;;;;;;46.08;25.70;;;-0.90;99.90;;;;;;5058680;28;20086;-71
2021/01/14 07:26:12;;;;;;;69.65;27.92;;;-0.90;99.90;;;;;;5052133;28;20029;-71
2021/01/14 07:28:38;;;;;;;69.70;32.65;;;-0.90;99.90;;;;;;5033335;28;20048;-69
2021/01/14 07:31:23;;;;;;;98.53;42.50;;;-0.90;99.90;;;;;;5050284;28;20409;-69
2021/01/14 07:33:50;;;;;;;71.40;34.97;;;-0.80;99.90;;;;;;5051152;28;20043;-70
2021/01/14 07:36:21;;;;;;;78.60;37.42;;;-0.80;99.90;;;;;;5050679;28;20589;-70
2021/01/14 07:38:48;;;;;;;82.50;34.05;;;-0.80;99.90;;;;;;5059695;28;20037;-71
2021/01/14 07:41:15;;;;;;;77.18;29.08;;;-0.80;99.90;;;;;;5047776;28;20048;-70
2021/01/14 07:43:45;;;;;;;56.03;25.83;;;-0.70;99.90;;;;;;5041949;28;20021;-70
2021/01/14 07:46:23;;;;;;;68.00;23.25;;;-0.60;99.90;;;;;;5049333;28;20013;-71
2021/01/14 07:48:51;;;;;;;49.17;23.02;;;-0.60;99.90;;;;;;5047676;28;20025;-71
2021/01/14 07:51:18;;;;;;;47.35;23.38;;;-0.60;99.90;;;;;;5054001;28;20025;-71
2021/01/14 07:54:06;;;;;;;36.85;20.95;;;-0.50;99.90;;;;;;5045313;28;20348;-70
2021/01/14 07:56:44;;;;;;;33.95;17.45;;;-0.50;99.90;;;;;;5049574;28;20025;-71
2021/01/14 07:59:11;;;;;;;26.75;16.73;;;-0.50;99.90;;;;;;5054453;28;20347;-71
2021/01/14 08:01:58;;;;;;;28.83;17.52;;;-0.50;99.90;;;;;;5054309;28;20039;-71
2021/01/14 08:04:24;;;;;;;38.58;20.92;;;-0.50;99.90;;;;;;5053572;28;20047;-70
2021/01/14 08:06:50;;;;;;;44.92;21.85;;;-0.50;99.90;;;;;;5053886;28;20025;-70
2021/01/14 08:09:15;;;;;;;47.05;24.92;;;-0.50;99.90;;;;;;5054149;28;20021;-71
2021/01/14 08:11:47;;;;;;;41.58;21.00;;;-0.50;99.90;;;;;;5053048;28;20485;-73
2021/01/14 08:14:21;;;;;;;30.60;18.75;;;-0.50;99.90;;;;;;5041211;28;20029;-73
2021/01/14 08:16:49;;;;;;;41.13;19.38;;;-0.40;99.90;;;;;;5050408;28;20029;-71
2021/01/14 08:19:36;;;;;;;33.63;18.60;;;-0.40;99.90;;;;;;5052583;28;20060;-70
2021/01/14 08:22:06;;;;;;;37.15;21.52;;;-0.40;99.90;;;;;;5054515;28;20099;-71
2021/01/14 08:24:52;;;;;;;30.65;17.52;;;-0.30;99.90;;;;;;5061556;28;20044;-71
2021/01/14 08:27:20;;;;;;;35.40;18.88;;;-0.30;99.90;;;;;;5053661;28;20048;-69
2021/01/14 08:29:50;;;;;;;32.38;18.80;;;-0.20;99.90;;;;;;5042104;28;20036;-71
2021/01/14 08:32:37;;;;;;;33.50;16.30;;;-0.20;99.90;;;;;;5053233;28;20055;-71
2021/01/14 08:35:07;;;;;;;26.25;15.95;;;-0.20;99.90;;;;;;5048448;28;20048;-71
2021/01/14 08:37:44;;;;;;;31.88;17.85;;;-0.20;99.90;;;;;;5053054;28;20032;-72
2021/01/14 08:40:13;;;;;;;33.35;17.52;;;0.00;99.90;;;;;;5043044;28;20025;-71
2021/01/14 08:42:44;;;;;;;31.80;17.52;;;-0.10;99.90;;;;;;5036940;28;20028;-72
2021/01/14 08:45:19;;;;;;;34.25;14.40;;;0.00;99.90;;;;;;5052554;28;20032;-71
2021/01/14 08:47:59;;;;;;;23.30;13.50;;;0.10;99.90;;;;;;5046154;28;20020;-73
2021/01/14 08:50:47;;;;;;;28.20;15.48;;;0.20;99.90;;;;;;5042529;28;20032;-72
2021/01/14 08:53:19;;;;;;;31.63;16.05;;;0.30;99.90;;;;;;5050424;28;20105;-71
2021/01/14 08:55:59;;;;;;;33.67;17.17;;;0.30;99.90;;;;;;5053517;28;20033;-72
2021/01/14 08:58:34;;;;;;;32.15;16.73;;;0.40;99.90;;;;;;5041842;28;20403;-72
2021/01/14 09:01:00;;;;;;;37.72;19.33;;;0.50;99.90;;;;;;5053176;28;20094;-75
2021/01/14 09:03:26;;;;;;;34.47;19.25;;;0.60;99.90;;;;;;5053277;28;20063;-74
2021/01/14 09:05:52;;;;;;;29.30;14.73;;;0.70;99.90;;;;;;5055070;28;20371;-71
2021/01/14 09:08:18;;;;;;;38.33;19.98;;;0.80;99.90;;;;;;5058024;28;20037;-72
2021/01/14 09:10:57;;;;;;;37.63;21.90;;;0.90;99.90;;;;;;5066040;28;20449;-73
2021/01/14 09:13:25;;;;;;;67.40;30.83;;;1.10;99.90;;;;;;5066784;28;20025;-72
2021/01/14 09:15:53;;;;;;;61.90;28.67;;;1.10;99.90;;;;;;5051271;28;20462;-71
2021/01/14 09:18:29;;;;;;;138.70;72.35;;;1.20;99.90;;;;;;5056254;28;20446;-73
2021/01/14 09:20:55;;;;;;;134.98;68.65;;;1.30;99.90;;;;;;5058549;28;20021;-71
2021/01/14 09:23:25;;;;;;;96.07;48.83;;;1.30;99.90;;;;;;5065736;28;20025;-71
2021/01/14 09:25:55;;;;;;;99.28;52.58;;;1.30;99.90;;;;;;5070407;28;20021;-72
2021/01/14 09:28:23;;;;;;;113.15;62.10;;;1.40;99.90;;;;;;5062075;28;20032;-72
2021/01/14 09:31:03;;;;;;;97.40;53.75;;;1.30;99.90;;;;;;5059319;28;20033;-72
2021/01/14 09:33:40;;;;;;;98.40;55.03;;;1.30;99.90;;;;;;5062568;28;20040;-71
2021/01/14 09:36:18;;;;;;;81.45;44.20;;;1.20;99.90;;;;;;5069855;28;20044;-70
2021/01/14 09:39:06;;;;;;;80.82;41.53;;;1.20;99.90;;;;;;5068637;28;20035;-72
2021/01/14 09:41:39;;;;;;;76.72;38.63;;;1.10;99.90;;;;;;5052606;28;20489;-72
2021/01/14 09:44:13;;;;;;;79.75;36.03;;;1.10;99.90;;;;;;5052413;28;20104;-72
2021/01/14 09:46:41;;;;;;;52.58;28.35;;;1.10;99.90;;;;;;5052052;28;20037;-71
2021/01/14 09:49:15;;;;;;;37.85;20.30;;;1.20;99.90;;;;;;5052168;28;20029;-71
2021/01/14 09:51:42;;;;;;;38.70;21.30;;;1.20;99.90;;;;;;5048920;28;20136;-71
2021/01/14 09:54:09;;;;;;;33.75;17.58;;;1.30;99.90;;;;;;5051929;28;20106;-72
2021/01/14 09:56:38;;;;;;;38.67;17.38;;;1.40;99.90;;;;;;5038092;28;20032;-71
2021/01/14 09:59:14;;;;;;;38.38;18.50;;;1.40;99.90;;;;;;5043600;28;20056;-73
2021/01/14 10:01:43;;;;;;;47.95;21.95;;;1.40;99.90;;;;;;5047423;28;20484;-73
2021/01/14 10:04:16;;;;;;;45.60;22.17;;;1.40;99.90;;;;;;5051586;28;20025;-70
2021/01/14 10:07:16;;;;;;;62.38;31.15;;;1.50;99.90;;;;;;5052055;28;20025;-71
2021/01/14 10:09:42;;;;;;;66.43;32.53;;;1.40;99.90;;;;;;4977822;28;20041;-72
2021/01/14 10:12:10;;;;;;;58.03;25.73;;;1.40;99.90;;;;;;4983487;28;20026;-73
2021/01/14 10:14:36;;;;;;;48.53;23.95;;;1.40;99.90;;;;;;4988497;28;20145;-73
2021/01/14 10:17:13;;;;;;;47.28;21.60;;;1.40;99.90;;;;;;4977045;28;20023;-72
2021/01/14 10:19:43;;;;;;;49.03;23.65;;;1.30;99.90;;;;;;4976571;28;20043;-72
2021/01/14 10:22:08;;;;;;;56.60;27.75;;;1.40;99.90;;;;;;4980697;28;20512;-71
2021/01/14 10:24:34;;;;;;;57.47;28.65;;;1.50;99.90;;;;;;4986870;28;20111;-71
2021/01/14 10:27:21;;;;;;;56.25;23.02;;;1.30;99.90;;;;;;4989319;28;20419;-72
2021/01/14 10:29:48;;;;;;;42.00;22.15;;;1.30;99.90;;;;;;4974848;28;20031;-72
2021/01/14 10:32:16;;;;;;;36.35;18.40;;;1.50;99.90;;;;;;4962055;28;20125;-71
2021/01/14 10:34:50;;;;;;;54.25;25.77;;;1.40;99.90;;;;;;4955861;28;20141;-71
2021/01/14 10:37:21;;;;;;;54.05;25.20;;;1.40;99.90;;;;;;4953782;28;20470;-71
2021/01/14 10:39:47;;;;;;;72.90;36.13;;;1.40;99.90;;;;;;4968745;28;20043;-71
2021/01/14 10:42:35;;;;;;;50.05;26.48;;;1.30;99.90;;;;;;4946947;28;20035;-71
2021/01/14 10:45:10;;;;;;;38.45;20.63;;;1.20;99.90;;;;;;4971783;28;20039;-73
2021/01/14 10:47:39;;;;;;;46.28;25.17;;;1.30;99.90;;;;;;5027216;28;20018;-72
2021/01/14 10:50:26;;;;;;;48.92;25.27;;;1.30;99.90;;;;;;5020425;28;20026;-71
2021/01/14 10:52:59;;;;;;;56.08;28.70;;;1.20;99.90;;;;;;5016388;28;20101;-72
2021/01/14 10:55:29;;;;;;;47.80;26.42;;;1.10;99.90;;;;;;5027989;28;20488;-70
2021/01/14 10:57:57;;;;;;;64.68;31.58;;;1.20;99.90;;;;;;5023619;28;20025;-71
2021/01/14 11:00:25;;;;;;;60.72;29.98;;;1.30;99.90;;;;;;5025234;28;20108;-72
2021/01/14 11:03:07;;;;;;;72.40;35.60;;;1.30;99.90;;;;;;5018201;28;20080;-71
2021/01/14 11:05:53;;;;;;;55.58;25.27;;;1.30;99.90;;;;;;5031395;28;20387;-71
2021/01/14 11:08:20;;;;;;;49.88;23.05;;;1.20;99.90;;;;;;5030717;28;20037;-71
2021/01/14 11:10:59;;;;;;;45.65;23.98;;;1.20;99.90;;;;;;5019985;28;20021;-72
2021/01/14 11:13:46;;;;;;;51.70;27.30;;;1.20;99.90;;;;;;5019621;28;20034;-71
2021/01/14 11:16:13;;;;;;;49.42;27.38;;;1.30;99.90;;;;;;5023265;28;20014;-71
2021/01/14 11:18:40;;;;;;;51.88;25.42;;;1.20;99.90;;;;;;5030217;28;20399;-71
2021/01/14 11:21:07;;;;;;;47.80;25.63;;;1.10;99.90;;;;;;5022745;28;20022;-70
2021/01/14 11:23:33;;;;;;;53.05;27.42;;;1.20;99.90;;;;;;5023221;28;20034;-72
2021/01/14 11:26:02;;;;;;;43.70;24.45;;;1.20;99.90;;;;;;5014038;28;20029;-71
2021/01/14 11:28:32;;;;;;;52.38;28.67;;;1.20;99.90;;;;;;5024977;28;20382;-72
2021/01/14 11:30:58;;;;;;;38.25;20.95;;;1.10;99.90;;;;;;5037683;28;20446;-73
2021/01/14 11:33:24;;;;;;;31.73;19.27;;;1.00;99.90;;;;;;5045658;28;20025;-73
2021/01/14 11:35:50;;;;;;;29.25;16.23;;;1.00;99.90;;;;;;5053657;28;20070;-74
2021/01/14 11:38:16;;;;;;;29.27;15.82;;;0.90;99.90;;;;;;5069096;28;20095;-72
2021/01/14 11:40:41;;;;;;;41.88;18.65;;;0.90;99.90;;;;;;5061959;28;20021;-72
2021/01/14 11:43:07;;;;;;;28.58;15.65;;;0.80;99.90;;;;;;5054703;28;20060;-71
2021/01/14 11:45:33;;;;;;;32.00;17.63;;;0.80;99.90;;;;;;5051587;28;20044;-72
2021/01/14 11:47:58;;;;;;;41.33;19.48;;;0.90;99.90;;;;;;5048685;28;20043;-72
2021/01/14 11:50:24;;;;;;;32.42;19.48;;;0.80;99.90;;;;;;5054337;28;20040;-71
2021/01/14 11:52:50;;;;;;;37.08;20.15;;;0.80;99.90;;;;;;5052352;28;20100;-70
2021/01/14 11:55:16;;;;;;;32.50;17.40;;;0.90;99.90;;;;;;5053803;28;20021;-72
2021/01/14 11:57:41;;;;;;;46.33;25.77;;;0.80;99.90;;;;;;5054042;28;20021;-72
2021/01/14 12:00:08;;;;;;;30.88;18.17;;;0.90;99.90;;;;;;5045474;28;20036;-69
2021/01/14 12:02:34;;;;;;;45.90;23.10;;;0.80;99.90;;;;;;5053573;28;20029;-71
2021/01/14 12:05:00;;;;;;;26.65;17.38;;;0.90;99.90;;;;;;5053874;28;20379;-71
2021/01/14 12:07:26;;;;;;;28.88;18.35;;;0.90;99.90;;;;;;5053583;28;20060;-70
2021/01/14 12:09:52;;;;;;;34.42;21.65;;;1.00;99.90;;;;;;5053298;28;20032;-71
2021/01/14 12:12:17;;;;;;;32.67;19.50;;;1.10;99.90;;;;;;5052723;28;20106;-70
2021/01/14 12:14:43;;;;;;;39.13;19.10;;;1.10;99.90;;;;;;5053165;28;20486;-73
2021/01/14 12:17:09;;;;;;;39.22;22.38;;;1.20;99.90;;;;;;5053316;28;20025;-72
2021/01/14 12:19:34;;;;;;;36.88;19.90;;;1.10;99.90;;;;;;5053698;28;20032;-71
2021/01/14 12:22:09;;;;;;;43.60;22.90;;;1.10;99.90;;;;;;5052911;28;20426;-71
2021/01/14 12:24:35;;;;;;;39.85;21.00;;;1.20;99.90;;;;;;5054087;28;20100;-71
2021/01/14 12:27:01;;;;;;;45.97;25.48;;;1.20;99.90;;;;;;5053588;28;20068;-71
2021/01/14 12:29:28;;;;;;;39.30;22.15;;;1.20;99.90;;;;;;5039529;28;20040;-71
2021/01/14 12:31:54;;;;;;;33.90;17.38;;;1.30;99.90;;;;;;5041612;28;20079;-73
2021/01/14 12:34:20;;;;;;;33.55;19.20;;;1.20;99.90;;;;;;5052975;28;20104;-72
2021/01/14 12:36:46;;;;;;;32.53;18.35;;;1.30;99.90;;;;;;5053103;28;20457;-72
2021/01/14 12:39:12;;;;;;;28.83;15.70;;;1.40;99.90;;;;;;5068012;28;20060;-74
2021/01/14 12:41:39;;;;;;;22.80;14.00;;;1.40;99.90;;;;;;5053008;28;20074;-72
2021/01/14 12:44:06;;;;;;;39.80;18.52;;;1.30;99.90;;;;;;5055276;28;20442;-72
2021/01/14 12:46:39;;;;;;;36.58;19.95;;;1.40;99.90;;;;;;5041134;28;20029;-74
2021/01/14 12:49:06;;;;;;;29.15;17.05;;;1.50;99.90;;;;;;5053051;28;20029;-72
2021/01/14 12:51:33;;;;;;;35.85;17.08;;;1.50;99.90;;;;;;5052121;28;20029;-75
2021/01/14 12:53:59;;;;;;;46.78;19.70;;;1.50;99.90;;;;;;5046812;28;20030;-77